sensor_id;sensor_type;location;lat;lon;timestamp;temperature;humidity
38514;DHT22;24282;48.400;10.808;2023-02-28T00:01:37;0.20;66.40
38514;DHT22;24282;48.400;10.808;2023-02-28T00:04:03;0.20;66.30
38514;DHT22;24282;48.400;10.808;2023-02-28T00:06:29;0.20;67.00
38514;DHT22;24282;48.400;10.808;2023-02-28T00:08:55;0.20;67.30
38514;DHT22;24282;48.400;10.808;2023-02-28T00:11:21;0.20;67.80
38514;DHT22;24282;48.400;10.808;2023-02-28T00:13:47;0.20;68.00
38514;DHT22;24282;48.400;10.808;2023-02-28T00:16:20;0.20;68.40
38514;DHT22;24282;48.400;10.808;2023-02-28T00:18:46;0.10;68.50
38514;DHT22;24282;48.400;10.808;2023-02-28T00:21:13;0.10;68.60
38514;DHT22;24282;48.400;10.808;2023-02-28T00:23:39;0.10;68.80
38514;DHT22;24282;48.400;10.808;2023-02-28T00:26:05;0.10;69.00
38514;DHT22;24282;48.400;10.808;2023-02-28T00:28:31;0.10;69.00
38514;DHT22;24282;48.400;10.808;2023-02-28T00:30:58;0.10;69.30
38514;DHT22;24282;48.400;10.808;2023-02-28T00:33:26;0.00;69.30
38514;DHT22;24282;48.400;10.808;2023-02-28T00:36:10;0.00;69.80
38514;DHT22;24282;48.400;10.808;2023-02-28T00:38:38;0.00;69.50
38514;DHT22;24282;48.400;10.808;2023-02-28T00:41:05;0.00;69.50
38514;DHT22;24282;48.400;10.808;2023-02-28T00:43:32;0.00;69.80
38514;DHT22;24282;48.400;10.808;2023-02-28T00:45:58;0.00;69.60
38514;DHT22;24282;48.400;10.808;2023-02-28T00:48:23;0.00;69.70
38514;DHT22;24282;48.400;10.808;2023-02-28T00:50:49;0.00;69.80
38514;DHT22;24282;48.400;10.808;2023-02-28T00:53:15;0.00;69.80
38514;DHT22;24282;48.400;10.808;2023-02-28T00:55:41;0.00;69.70
38514;DHT22;24282;48.400;10.808;2023-02-28T00:58:06;0.00;69.80
38514;DHT22;24282;48.400;10.808;2023-02-28T01:00:32;0.00;70.10
38514;DHT22;24282;48.400;10.808;2023-02-28T01:02:58;0.00;70.20
38514;DHT22;24282;48.400;10.808;2023-02-28T01:05:23;0.00;69.90
38514;DHT22;24282;48.400;10.808;2023-02-28T01:07:49;0.00;69.40
38514;DHT22;24282;48.400;10.808;2023-02-28T01:10:15;0.00;69.40
38514;DHT22;24282;48.400;10.808;2023-02-28T01:12:41;0.00;69.40
38514;DHT22;24282;48.400;10.808;2023-02-28T01:15:10;0.00;69.20
38514;DHT22;24282;48.400;10.808;2023-02-28T01:17:37;0.00;68.90
38514;DHT22;24282;48.400;10.808;2023-02-28T01:20:03;0.00;68.80
38514;DHT22;24282;48.400;10.808;2023-02-28T01:22:29;0.00;68.50
38514;DHT22;24282;48.400;10.808;2023-02-28T01:24:55;0.00;68.60
38514;DHT22;24282;48.400;10.808;2023-02-28T01:27:21;0.00;68.50
38514;DHT22;24282;48.400;10.808;2023-02-28T01:29:47;0.00;67.90
38514;DHT22;24282;48.400;10.808;2023-02-28T01:32:12;0.00;68.20
38514;DHT22;24282;48.400;10.808;2023-02-28T01:34:38;0.00;67.50
38514;DHT22;24282;48.400;10.808;2023-02-28T01:37:04;0.00;67.70
38514;DHT22;24282;48.400;10.808;2023-02-28T01:39:30;0.00;68.30
38514;DHT22;24282;48.400;10.808;2023-02-28T01:41:55;0.00;68.30
38514;DHT22;24282;48.400;10.808;2023-02-28T01:47:29;0.00;67.50
38514;DHT22;24282;48.400;10.808;2023-02-28T01:49:57;0.00;67.60
38514;DHT22;24282;48.400;10.808;2023-02-28T01:52:23;-3276.70;67.80
38514;DHT22;24282;48.400;10.808;2023-02-28T01:54:55;0.00;67.70
38514;DHT22;24282;48.400;10.808;2023-02-28T01:57:26;-3276.70;67.90
38514;DHT22;24282;48.400;10.808;2023-02-28T02:00:03;0.00;67.50
38514;DHT22;24282;48.400;10.808;2023-02-28T02:02:38;0.00;67.70
38514;DHT22;24282;48.400;10.808;2023-02-28T02:05:11;0.00;67.80
38514;DHT22;24282;48.400;10.808;2023-02-28T02:07:42;0.00;67.70
38514;DHT22;24282;48.400;10.808;2023-02-28T02:10:21;0.00;67.60
38514;DHT22;24282;48.400;10.808;2023-02-28T02:24:30;-3276.70;67.70
38514;DHT22;24282;48.400;10.808;2023-02-28T02:27:28;-3276.70;67.60
38514;DHT22;24282;48.400;10.808;2023-02-28T02:30:24;0.00;67.50
38514;DHT22;24282;48.400;10.808;2023-02-28T02:36:30;-3276.70;67.80
38514;DHT22;24282;48.400;10.808;2023-02-28T02:41:51;-3276.70;67.70
38514;DHT22;24282;48.400;10.808;2023-02-28T02:46:47;-3276.70;67.40
38514;DHT22;24282;48.400;10.808;2023-02-28T02:49:18;-3276.70;67.70
38514;DHT22;24282;48.400;10.808;2023-02-28T02:51:46;-3276.60;68.00
38514;DHT22;24282;48.400;10.808;2023-02-28T02:54:22;-3276.60;68.00
38514;DHT22;24282;48.400;10.808;2023-02-28T02:56:49;-3276.60;68.10
38514;DHT22;24282;48.400;10.808;2023-02-28T02:59:20;-3276.60;67.70
38514;DHT22;24282;48.400;10.808;2023-02-28T03:01:55;-3276.60;67.70
38514;DHT22;24282;48.400;10.808;2023-02-28T03:04:24;-3276.60;68.00
38514;DHT22;24282;48.400;10.808;2023-02-28T03:06:51;-3276.60;68.10
38514;DHT22;24282;48.400;10.808;2023-02-28T03:09:22;-3276.60;68.30
38514;DHT22;24282;48.400;10.808;2023-02-28T03:11:49;-3276.70;68.10
38514;DHT22;24282;48.400;10.808;2023-02-28T03:14:55;-3276.60;68.10
38514;DHT22;24282;48.400;10.808;2023-02-28T03:23:03;-3276.60;68.40
38514;DHT22;24282;48.400;10.808;2023-02-28T03:30:54;-3276.70;68.20
38514;DHT22;24282;48.400;10.808;2023-02-28T03:33:26;-3276.70;68.10
38514;DHT22;24282;48.400;10.808;2023-02-28T03:36:02;-3276.60;68.10
38514;DHT22;24282;48.400;10.808;2023-02-28T03:38:39;-3276.60;68.40
38514;DHT22;24282;48.400;10.808;2023-02-28T03:41:14;-3276.70;67.90
38514;DHT22;24282;48.400;10.808;2023-02-28T03:43:44;-3276.60;68.30
38514;DHT22;24282;48.400;10.808;2023-02-28T03:46:13;-3276.60;68.30
38514;DHT22;24282;48.400;10.808;2023-02-28T03:48:47;-3276.60;68.60
38514;DHT22;24282;48.400;10.808;2023-02-28T03:51:17;-3276.60;68.00
38514;DHT22;24282;48.400;10.808;2023-02-28T03:53:57;-3276.60;68.30
38514;DHT22;24282;48.400;10.808;2023-02-28T03:56:44;-3276.60;68.50
38514;DHT22;24282;48.400;10.808;2023-02-28T03:59:25;-3276.60;68.40
38514;DHT22;24282;48.400;10.808;2023-02-28T04:01:52;-3276.70;68.00
38514;DHT22;24282;48.400;10.808;2023-02-28T04:04:18;-3276.60;68.10
38514;DHT22;24282;48.400;10.808;2023-02-28T04:06:44;-3276.70;67.80
38514;DHT22;24282;48.400;10.808;2023-02-28T04:09:13;-3276.70;67.70
38514;DHT22;24282;48.400;10.808;2023-02-28T04:11:40;-3276.60;67.90
38514;DHT22;24282;48.400;10.808;2023-02-28T04:14:08;-3276.60;68.20
38514;DHT22;24282;48.400;10.808;2023-02-28T04:16:37;-3276.60;68.00
38514;DHT22;24282;48.400;10.808;2023-02-28T04:19:04;-3276.60;67.90
38514;DHT22;24282;48.400;10.808;2023-02-28T04:21:36;-3276.50;68.00
38514;DHT22;24282;48.400;10.808;2023-02-28T04:24:05;-3276.60;68.20
38514;DHT22;24282;48.400;10.808;2023-02-28T04:26:31;-3276.50;68.20
38514;DHT22;24282;48.400;10.808;2023-02-28T04:28:58;-3276.50;68.60
38514;DHT22;24282;48.400;10.808;2023-02-28T04:31:25;-3276.50;68.70
38514;DHT22;24282;48.400;10.808;2023-02-28T04:33:50;-3276.50;69.00
38514;DHT22;24282;48.400;10.808;2023-02-28T04:36:16;-3276.60;68.40
38514;DHT22;24282;48.400;10.808;2023-02-28T04:38:44;-3276.60;68.50
38514;DHT22;24282;48.400;10.808;2023-02-28T04:41:11;-3276.60;68.10
38514;DHT22;24282;48.400;10.808;2023-02-28T04:43:36;-3276.60;68.50
38514;DHT22;24282;48.400;10.808;2023-02-28T04:46:04;-3276.60;68.20
38514;DHT22;24282;48.400;10.808;2023-02-28T04:48:33;-3276.60;68.20
38514;DHT22;24282;48.400;10.808;2023-02-28T04:51:09;-3276.50;68.40
38514;DHT22;24282;48.400;10.808;2023-02-28T04:53:37;-3276.50;68.50
38514;DHT22;24282;48.400;10.808;2023-02-28T04:56:03;-3276.50;68.50
38514;DHT22;24282;48.400;10.808;2023-02-28T04:58:29;-3276.50;68.80
38514;DHT22;24282;48.400;10.808;2023-02-28T05:01:02;-3276.50;69.00
38514;DHT22;24282;48.400;10.808;2023-02-28T05:03:28;-3276.50;69.00
38514;DHT22;24282;48.400;10.808;2023-02-28T05:05:54;-3276.60;68.60
38514;DHT22;24282;48.400;10.808;2023-02-28T05:08:19;-3276.50;68.80
38514;DHT22;24282;48.400;10.808;2023-02-28T05:10:45;-3276.50;68.70
38514;DHT22;24282;48.400;10.808;2023-02-28T05:13:14;-3276.50;68.70
38514;DHT22;24282;48.400;10.808;2023-02-28T05:15:40;-3276.50;68.40
38514;DHT22;24282;48.400;10.808;2023-02-28T05:18:05;-3276.60;68.20
38514;DHT22;24282;48.400;10.808;2023-02-28T05:20:31;-3276.50;68.60
38514;DHT22;24282;48.400;10.808;2023-02-28T05:22:57;-3276.50;68.60
38514;DHT22;24282;48.400;10.808;2023-02-28T05:25:23;-3276.50;68.90
38514;DHT22;24282;48.400;10.808;2023-02-28T05:27:49;-3276.40;68.80
38514;DHT22;24282;48.400;10.808;2023-02-28T05:30:15;-3276.50;68.70
38514;DHT22;24282;48.400;10.808;2023-02-28T05:32:41;-3276.50;68.50
38514;DHT22;24282;48.400;10.808;2023-02-28T05:35:11;-3276.50;68.60
38514;DHT22;24282;48.400;10.808;2023-02-28T05:37:38;-3276.50;68.90
38514;DHT22;24282;48.400;10.808;2023-02-28T05:40:07;-3276.50;68.80
38514;DHT22;24282;48.400;10.808;2023-02-28T05:42:36;-3276.50;68.90
38514;DHT22;24282;48.400;10.808;2023-02-28T05:45:09;-3276.40;69.00
38514;DHT22;24282;48.400;10.808;2023-02-28T05:47:35;-3276.40;69.00
38514;DHT22;24282;48.400;10.808;2023-02-28T05:50:01;-3276.40;68.90
38514;DHT22;24282;48.400;10.808;2023-02-28T05:52:28;-3276.40;69.00
38514;DHT22;24282;48.400;10.808;2023-02-28T05:54:55;-3276.40;69.00
38514;DHT22;24282;48.400;10.808;2023-02-28T05:57:22;-3276.40;69.10
38514;DHT22;24282;48.400;10.808;2023-02-28T05:59:48;-3276.40;68.80
38514;DHT22;24282;48.400;10.808;2023-02-28T06:02:16;-3276.40;68.90
38514;DHT22;24282;48.400;10.808;2023-02-28T06:04:42;-3276.40;69.10
38514;DHT22;24282;48.400;10.808;2023-02-28T06:07:08;-3276.40;69.10
38514;DHT22;24282;48.400;10.808;2023-02-28T06:09:34;-3276.40;69.30
38514;DHT22;24282;48.400;10.808;2023-02-28T06:12:02;-3276.40;69.00
38514;DHT22;24282;48.400;10.808;2023-02-28T06:14:32;-3276.40;69.00
38514;DHT22;24282;48.400;10.808;2023-02-28T06:16:59;-3276.40;69.30
38514;DHT22;24282;48.400;10.808;2023-02-28T06:19:26;-3276.40;69.40
38514;DHT22;24282;48.400;10.808;2023-02-28T06:21:52;-3276.40;69.50
38514;DHT22;24282;48.400;10.808;2023-02-28T06:24:23;-3276.40;69.30
38514;DHT22;24282;48.400;10.808;2023-02-28T06:26:50;-3276.40;69.40
38514;DHT22;24282;48.400;10.808;2023-02-28T06:29:16;-3276.40;69.40
38514;DHT22;24282;48.400;10.808;2023-02-28T06:31:45;-3276.40;68.80
38514;DHT22;24282;48.400;10.808;2023-02-28T06:34:11;-3276.40;69.30
38514;DHT22;24282;48.400;10.808;2023-02-28T06:36:41;-3276.40;69.10
38514;DHT22;24282;48.400;10.808;2023-02-28T06:39:07;-3276.40;69.70
38514;DHT22;24282;48.400;10.808;2023-02-28T06:41:33;-3276.40;69.50
38514;DHT22;24282;48.400;10.808;2023-02-28T06:44:04;-3276.40;69.70
38514;DHT22;24282;48.400;10.808;2023-02-28T06:46:31;-3276.50;69.70
38514;DHT22;24282;48.400;10.808;2023-02-28T06:48:57;-3276.40;69.60
38514;DHT22;24282;48.400;10.808;2023-02-28T06:51:23;-3276.40;69.60
38514;DHT22;24282;48.400;10.808;2023-02-28T06:53:50;-3276.40;69.60
38514;DHT22;24282;48.400;10.808;2023-02-28T06:56:17;-3276.40;69.70
38514;DHT22;24282;48.400;10.808;2023-02-28T06:58:47;-3276.40;70.00
38514;DHT22;24282;48.400;10.808;2023-02-28T07:01:14;-3276.40;70.00
38514;DHT22;24282;48.400;10.808;2023-02-28T07:03:40;-3276.40;70.40
38514;DHT22;24282;48.400;10.808;2023-02-28T07:06:06;-3276.50;70.00
38514;DHT22;24282;48.400;10.808;2023-02-28T07:08:34;-3276.50;69.70
38514;DHT22;24282;48.400;10.808;2023-02-28T07:11:01;-3276.50;69.60
38514;DHT22;24282;48.400;10.808;2023-02-28T07:13:27;-3276.60;69.30
38514;DHT22;24282;48.400;10.808;2023-02-28T07:15:58;-3276.50;69.40
38514;DHT22;24282;48.400;10.808;2023-02-28T07:18:25;-3276.50;69.40
38514;DHT22;24282;48.400;10.808;2023-02-28T07:20:51;-3276.50;69.30
38514;DHT22;24282;48.400;10.808;2023-02-28T07:23:17;-3276.50;69.40
38514;DHT22;24282;48.400;10.808;2023-02-28T07:25:43;-3276.50;69.60
38514;DHT22;24282;48.400;10.808;2023-02-28T07:28:11;-3276.50;69.70
38514;DHT22;24282;48.400;10.808;2023-02-28T07:30:37;-3276.50;70.00
38514;DHT22;24282;48.400;10.808;2023-02-28T07:33:03;-3276.50;69.70
38514;DHT22;24282;48.400;10.808;2023-02-28T07:35:29;-3276.50;70.00
38514;DHT22;24282;48.400;10.808;2023-02-28T07:37:57;-3276.60;69.60
38514;DHT22;24282;48.400;10.808;2023-02-28T07:40:23;-3276.50;69.40
38514;DHT22;24282;48.400;10.808;2023-02-28T07:42:49;-3276.60;69.40
38514;DHT22;24282;48.400;10.808;2023-02-28T07:45:16;-3276.60;69.80
38514;DHT22;24282;48.400;10.808;2023-02-28T07:47:43;-3276.60;69.60
38514;DHT22;24282;48.400;10.808;2023-02-28T07:50:11;-3276.60;69.60
38514;DHT22;24282;48.400;10.808;2023-02-28T07:52:38;-3276.60;69.70
38514;DHT22;24282;48.400;10.808;2023-02-28T07:55:05;-3276.70;69.50
38514;DHT22;24282;48.400;10.808;2023-02-28T07:57:31;-3276.70;69.20
38514;DHT22;24282;48.400;10.808;2023-02-28T07:59:57;-3276.70;69.30
38514;DHT22;24282;48.400;10.808;2023-02-28T08:02:23;-3276.70;69.70
38514;DHT22;24282;48.400;10.808;2023-02-28T08:04:49;0.00;69.50
38514;DHT22;24282;48.400;10.808;2023-02-28T08:07:16;0.00;69.30
38514;DHT22;24282;48.400;10.808;2023-02-28T08:09:43;0.00;68.90
38514;DHT22;24282;48.400;10.808;2023-02-28T08:12:09;0.00;68.90
38514;DHT22;24282;48.400;10.808;2023-02-28T08:14:36;0.00;69.10
38514;DHT22;24282;48.400;10.808;2023-02-28T08:17:03;0.00;69.30
38514;DHT22;24282;48.400;10.808;2023-02-28T08:19:29;0.10;69.40
38514;DHT22;24282;48.400;10.808;2023-02-28T08:21:55;0.20;69.50
38514;DHT22;24282;48.400;10.808;2023-02-28T08:24:21;0.20;68.90
38514;DHT22;24282;48.400;10.808;2023-02-28T08:26:47;0.30;68.60
38514;DHT22;24282;48.400;10.808;2023-02-28T08:29:12;0.30;68.20
38514;DHT22;24282;48.400;10.808;2023-02-28T08:31:38;0.40;67.40
38514;DHT22;24282;48.400;10.808;2023-02-28T08:34:14;0.50;67.20
38514;DHT22;24282;48.400;10.808;2023-02-28T08:36:40;0.50;66.80
38514;DHT22;24282;48.400;10.808;2023-02-28T08:39:07;0.50;66.40
38514;DHT22;24282;48.400;10.808;2023-02-28T08:41:33;0.50;66.40
38514;DHT22;24282;48.400;10.808;2023-02-28T08:43:59;0.60;66.90
38514;DHT22;24282;48.400;10.808;2023-02-28T08:46:25;0.60;66.70
38514;DHT22;24282;48.400;10.808;2023-02-28T08:48:55;0.60;66.30
38514;DHT22;24282;48.400;10.808;2023-02-28T08:51:24;0.70;66.30
38514;DHT22;24282;48.400;10.808;2023-02-28T08:53:54;0.60;66.30
38514;DHT22;24282;48.400;10.808;2023-02-28T08:56:21;0.70;66.10
38514;DHT22;24282;48.400;10.808;2023-02-28T08:58:48;0.80;66.20
38514;DHT22;24282;48.400;10.808;2023-02-28T09:03:43;0.90;65.90
38514;DHT22;24282;48.400;10.808;2023-02-28T09:06:10;0.90;65.60
38514;DHT22;24282;48.400;10.808;2023-02-28T09:08:36;0.90;65.50
38514;DHT22;24282;48.400;10.808;2023-02-28T09:11:02;0.90;65.40
38514;DHT22;24282;48.400;10.808;2023-02-28T09:13:29;1.00;65.30
38514;DHT22;24282;48.400;10.808;2023-02-28T09:15:58;1.00;64.90
38514;DHT22;24282;48.400;10.808;2023-02-28T09:18:24;1.10;64.30
38514;DHT22;24282;48.400;10.808;2023-02-28T09:20:50;1.10;64.40
38514;DHT22;24282;48.400;10.808;2023-02-28T09:23:16;1.10;64.60
38514;DHT22;24282;48.400;10.808;2023-02-28T09:25:50;1.10;64.90
38514;DHT22;24282;48.400;10.808;2023-02-28T09:28:17;1.20;65.00
38514;DHT22;24282;48.400;10.808;2023-02-28T09:30:48;1.20;64.60
38514;DHT22;24282;48.400;10.808;2023-02-28T09:33:15;1.20;64.80
38514;DHT22;24282;48.400;10.808;2023-02-28T09:35:41;1.20;64.20
38514;DHT22;24282;48.400;10.808;2023-02-28T09:38:09;1.40;63.90
38514;DHT22;24282;48.400;10.808;2023-02-28T09:41:00;1.40;63.90
38514;DHT22;24282;48.400;10.808;2023-02-28T09:43:31;1.60;63.00
38514;DHT22;24282;48.400;10.808;2023-02-28T09:48:47;1.70;62.70
38514;DHT22;24282;48.400;10.808;2023-02-28T09:54:00;1.70;62.50
38514;DHT22;24282;48.400;10.808;2023-02-28T10:05:15;1.90;63.30
38514;DHT22;24282;48.400;10.808;2023-02-28T10:08:13;2.00;62.70
38514;DHT22;24282;48.400;10.808;2023-02-28T10:10:50;2.00;62.70
38514;DHT22;24282;48.400;10.808;2023-02-28T10:13:23;2.00;61.90
38514;DHT22;24282;48.400;10.808;2023-02-28T10:15:58;2.00;61.90
38514;DHT22;24282;48.400;10.808;2023-02-28T10:18:33;2.00;62.50
38514;DHT22;24282;48.400;10.808;2023-02-28T10:21:03;2.10;62.30
38514;DHT22;24282;48.400;10.808;2023-02-28T10:23:34;2.00;62.50
38514;DHT22;24282;48.400;10.808;2023-02-28T10:26:15;2.00;62.70
38514;DHT22;24282;48.400;10.808;2023-02-28T10:28:42;2.00;62.50
38514;DHT22;24282;48.400;10.808;2023-02-28T10:31:19;2.00;62.30
38514;DHT22;24282;48.400;10.808;2023-02-28T10:33:45;2.10;62.70
38514;DHT22;24282;48.400;10.808;2023-02-28T10:36:20;2.30;62.80
38514;DHT22;24282;48.400;10.808;2023-02-28T10:38:47;2.40;62.80
38514;DHT22;24282;48.400;10.808;2023-02-28T10:41:30;2.50;62.10
38514;DHT22;24282;48.400;10.808;2023-02-28T10:44:21;2.50;61.20
38514;DHT22;24282;48.400;10.808;2023-02-28T10:46:49;2.50;60.70
38514;DHT22;24282;48.400;10.808;2023-02-28T10:49:25;2.60;61.10
38514;DHT22;24282;48.400;10.808;2023-02-28T10:51:59;2.70;61.40
38514;DHT22;24282;48.400;10.808;2023-02-28T10:54:33;2.70;61.50
38514;DHT22;24282;48.400;10.808;2023-02-28T10:57:20;2.80;61.30
38514;DHT22;24282;48.400;10.808;2023-02-28T11:00:12;2.80;61.30
38514;DHT22;24282;48.400;10.808;2023-02-28T11:02:39;2.90;61.20
38514;DHT22;24282;48.400;10.808;2023-02-28T11:05:29;3.00;61.20
38514;DHT22;24282;48.400;10.808;2023-02-28T11:08:14;3.10;60.60
38514;DHT22;24282;48.400;10.808;2023-02-28T11:10:46;3.10;60.30
38514;DHT22;24282;48.400;10.808;2023-02-28T11:13:21;3.20;59.70
38514;DHT22;24282;48.400;10.808;2023-02-28T11:16:02;3.30;60.00
38514;DHT22;24282;48.400;10.808;2023-02-28T11:18:47;3.30;60.10
38514;DHT22;24282;48.400;10.808;2023-02-28T11:21:25;3.30;60.00
38514;DHT22;24282;48.400;10.808;2023-02-28T11:23:58;3.40;59.90
38514;DHT22;24282;48.400;10.808;2023-02-28T11:29:26;3.60;60.00
38514;DHT22;24282;48.400;10.808;2023-02-28T11:32:21;3.60;60.00
38514;DHT22;24282;48.400;10.808;2023-02-28T11:37:27;3.80;58.70
38514;DHT22;24282;48.400;10.808;2023-02-28T11:39:54;3.90;58.80
38514;DHT22;24282;48.400;10.808;2023-02-28T11:42:47;4.00;59.50
38514;DHT22;24282;48.400;10.808;2023-02-28T11:50:49;4.20;58.70
38514;DHT22;24282;48.400;10.808;2023-02-28T11:53:55;4.30;58.40
38514;DHT22;24282;48.400;10.808;2023-02-28T11:56:41;4.30;57.70
38514;DHT22;24282;48.400;10.808;2023-02-28T12:01:58;4.30;57.40
38514;DHT22;24282;48.400;10.808;2023-02-28T12:07:26;4.50;57.20
38514;DHT22;24282;48.400;10.808;2023-02-28T12:15:36;4.80;56.50
38514;DHT22;24282;48.400;10.808;2023-02-28T12:21:08;5.20;56.20
38514;DHT22;24282;48.400;10.808;2023-02-28T12:26:43;5.50;54.40
38514;DHT22;24282;48.400;10.808;2023-02-28T12:29:17;5.70;54.50
38514;DHT22;24282;48.400;10.808;2023-02-28T12:32:09;5.90;53.30
38514;DHT22;24282;48.400;10.808;2023-02-28T12:34:42;6.00;53.20
38514;DHT22;24282;48.400;10.808;2023-02-28T12:37:17;6.00;53.20
38514;DHT22;24282;48.400;10.808;2023-02-28T12:39:48;6.10;52.80
38514;DHT22;24282;48.400;10.808;2023-02-28T12:42:38;6.10;52.10
38514;DHT22;24282;48.400;10.808;2023-02-28T12:47:34;6.10;51.60
38514;DHT22;24282;48.400;10.808;2023-02-28T12:50:05;6.20;52.00
38514;DHT22;24282;48.400;10.808;2023-02-28T12:57:46;6.20;51.50
38514;DHT22;24282;48.400;10.808;2023-02-28T13:00:18;6.20;51.50
38514;DHT22;24282;48.400;10.808;2023-02-28T13:03:00;6.20;51.10
38514;DHT22;24282;48.400;10.808;2023-02-28T13:08:59;6.10;52.20
38514;DHT22;24282;48.400;10.808;2023-02-28T13:11:43;6.00;52.40
38514;DHT22;24282;48.400;10.808;2023-02-28T13:14:37;5.90;52.30
38514;DHT22;24282;48.400;10.808;2023-02-28T13:19:41;5.80;52.40
38514;DHT22;24282;48.400;10.808;2023-02-28T13:22:37;5.70;52.40
38514;DHT22;24282;48.400;10.808;2023-02-28T13:27:55;5.60;52.50
38514;DHT22;24282;48.400;10.808;2023-02-28T13:38:53;5.40;53.40
38514;DHT22;24282;48.400;10.808;2023-02-28T13:44:15;5.30;54.10
38514;DHT22;24282;48.400;10.808;2023-02-28T13:49:32;5.30;54.30
38514;DHT22;24282;48.400;10.808;2023-02-28T14:05:40;5.30;55.00
38514;DHT22;24282;48.400;10.808;2023-02-28T14:08:18;5.30;55.20
38514;DHT22;24282;48.400;10.808;2023-02-28T14:10:52;5.40;55.00
38514;DHT22;24282;48.400;10.808;2023-02-28T14:16:11;5.40;54.40
38514;DHT22;24282;48.400;10.808;2023-02-28T14:18:42;5.40;53.80
38514;DHT22;24282;48.400;10.808;2023-02-28T14:21:27;5.30;53.90
38514;DHT22;24282;48.400;10.808;2023-02-28T14:27:15;5.20;54.60
38514;DHT22;24282;48.400;10.808;2023-02-28T14:30:14;5.20;53.80
38514;DHT22;24282;48.400;10.808;2023-02-28T14:38:41;5.10;54.30
38514;DHT22;24282;48.400;10.808;2023-02-28T14:41:31;5.00;54.70
38514;DHT22;24282;48.400;10.808;2023-02-28T14:43:59;5.00;54.40
38514;DHT22;24282;48.400;10.808;2023-02-28T14:46:35;5.00;54.50
38514;DHT22;24282;48.400;10.808;2023-02-28T14:49:11;5.10;54.00
38514;DHT22;24282;48.400;10.808;2023-02-28T14:51:38;5.00;54.70
38514;DHT22;24282;48.400;10.808;2023-02-28T14:54:04;5.00;55.30
38514;DHT22;24282;48.400;10.808;2023-02-28T14:56:35;5.00;55.50
38514;DHT22;24282;48.400;10.808;2023-02-28T14:59:03;5.00;55.00
38514;DHT22;24282;48.400;10.808;2023-02-28T15:01:29;5.10;54.70
38514;DHT22;24282;48.400;10.808;2023-02-28T15:04:06;5.10;55.10
38514;DHT22;24282;48.400;10.808;2023-02-28T15:06:33;5.10;55.00
38514;DHT22;24282;48.400;10.808;2023-02-28T15:09:18;5.10;54.60
38514;DHT22;24282;48.400;10.808;2023-02-28T15:11:47;5.10;54.10
38514;DHT22;24282;48.400;10.808;2023-02-28T15:14:18;5.10;53.80
38514;DHT22;24282;48.400;10.808;2023-02-28T15:16:46;5.00;54.40
38514;DHT22;24282;48.400;10.808;2023-02-28T15:19:24;5.00;54.70
38514;DHT22;24282;48.400;10.808;2023-02-28T15:22:12;5.00;54.40
38514;DHT22;24282;48.400;10.808;2023-02-28T15:24:51;4.90;54.40
38514;DHT22;24282;48.400;10.808;2023-02-28T15:27:29;4.90;55.10
38514;DHT22;24282;48.400;10.808;2023-02-28T15:30:08;4.90;55.10
38514;DHT22;24282;48.400;10.808;2023-02-28T15:32:37;4.80;55.70
38514;DHT22;24282;48.400;10.808;2023-02-28T15:35:28;4.90;56.00
38514;DHT22;24282;48.400;10.808;2023-02-28T15:38:22;4.80;55.50
38514;DHT22;24282;48.400;10.808;2023-02-28T15:40:54;4.90;55.00
38514;DHT22;24282;48.400;10.808;2023-02-28T15:43:37;4.80;55.20
38514;DHT22;24282;48.400;10.808;2023-02-28T15:46:08;4.80;55.10
38514;DHT22;24282;48.400;10.808;2023-02-28T15:48:54;4.80;55.10
38514;DHT22;24282;48.400;10.808;2023-02-28T15:51:32;4.70;54.90
38514;DHT22;24282;48.400;10.808;2023-02-28T15:54:06;4.60;54.90
38514;DHT22;24282;48.400;10.808;2023-02-28T15:56:44;4.50;55.40
38514;DHT22;24282;48.400;10.808;2023-02-28T15:59:16;4.50;55.70
38514;DHT22;24282;48.400;10.808;2023-02-28T16:01:43;4.50;56.20
38514;DHT22;24282;48.400;10.808;2023-02-28T16:04:19;4.40;56.80
38514;DHT22;24282;48.400;10.808;2023-02-28T16:09:23;4.30;57.00
38514;DHT22;24282;48.400;10.808;2023-02-28T16:11:52;4.30;57.70
38514;DHT22;24282;48.400;10.808;2023-02-28T16:14:21;4.20;58.00
38514;DHT22;24282;48.400;10.808;2023-02-28T16:16:53;4.20;57.10
38514;DHT22;24282;48.400;10.808;2023-02-28T16:19:20;4.10;57.80
38514;DHT22;24282;48.400;10.808;2023-02-28T16:21:46;4.10;58.40
38514;DHT22;24282;48.400;10.808;2023-02-28T16:24:13;4.00;58.10
38514;DHT22;24282;48.400;10.808;2023-02-28T16:26:40;4.00;58.50
38514;DHT22;24282;48.400;10.808;2023-02-28T16:29:10;3.90;59.40
38514;DHT22;24282;48.400;10.808;2023-02-28T16:31:39;3.90;59.50
38514;DHT22;24282;48.400;10.808;2023-02-28T16:34:05;3.90;59.50
38514;DHT22;24282;48.400;10.808;2023-02-28T16:36:31;3.80;59.50
38514;DHT22;24282;48.400;10.808;2023-02-28T16:38:57;3.80;60.30
38514;DHT22;24282;48.400;10.808;2023-02-28T16:41:25;3.70;59.70
38514;DHT22;24282;48.400;10.808;2023-02-28T16:43:54;3.70;59.80
38514;DHT22;24282;48.400;10.808;2023-02-28T16:46:25;3.60;60.10
38514;DHT22;24282;48.400;10.808;2023-02-28T16:48:52;3.50;60.80
38514;DHT22;24282;48.400;10.808;2023-02-28T16:51:18;3.50;61.10
38514;DHT22;24282;48.400;10.808;2023-02-28T16:53:45;3.50;61.10
38514;DHT22;24282;48.400;10.808;2023-02-28T16:56:20;3.50;61.00
38514;DHT22;24282;48.400;10.808;2023-02-28T16:58:48;3.40;61.80
38514;DHT22;24282;48.400;10.808;2023-02-28T17:01:15;3.40;61.50
38514;DHT22;24282;48.400;10.808;2023-02-28T17:03:41;3.30;61.60
38514;DHT22;24282;48.400;10.808;2023-02-28T17:06:26;3.20;61.90
38514;DHT22;24282;48.400;10.808;2023-02-28T17:08:54;3.20;61.50
38514;DHT22;24282;48.400;10.808;2023-02-28T17:11:20;3.10;61.70
38514;DHT22;24282;48.400;10.808;2023-02-28T17:13:46;3.10;62.10
38514;DHT22;24282;48.400;10.808;2023-02-28T17:16:29;3.00;62.00
38514;DHT22;24282;48.400;10.808;2023-02-28T17:18:57;3.00;62.60
38514;DHT22;24282;48.400;10.808;2023-02-28T17:21:24;2.90;62.80
38514;DHT22;24282;48.400;10.808;2023-02-28T17:23:49;2.80;63.20
38514;DHT22;24282;48.400;10.808;2023-02-28T17:26:18;2.80;63.50
38514;DHT22;24282;48.400;10.808;2023-02-28T17:28:50;2.70;63.40
38514;DHT22;24282;48.400;10.808;2023-02-28T17:31:16;2.70;63.70
38514;DHT22;24282;48.400;10.808;2023-02-28T17:33:43;2.60;63.60
38514;DHT22;24282;48.400;10.808;2023-02-28T17:36:17;2.60;64.10
38514;DHT22;24282;48.400;10.808;2023-02-28T17:38:44;2.60;64.10
38514;DHT22;24282;48.400;10.808;2023-02-28T17:41:10;2.50;64.00
38514;DHT22;24282;48.400;10.808;2023-02-28T17:43:36;2.50;64.40
38514;DHT22;24282;48.400;10.808;2023-02-28T17:46:02;2.50;64.50
38514;DHT22;24282;48.400;10.808;2023-02-28T17:48:31;2.40;64.60
38514;DHT22;24282;48.400;10.808;2023-02-28T17:50:57;2.40;64.70